createdAt,value
2017-10-21T00:00:21.388Z,89.03
2017-10-21T00:02:47.928Z,88.29
2017-10-21T00:05:14.047Z,88.05
2017-10-21T00:07:40.167Z,87.86
2017-10-21T00:10:06.251Z,87.93
2017-10-21T00:12:32.338Z,88.15
2017-10-21T00:14:58.851Z,88.15
2017-10-21T00:17:24.905Z,88.27
2017-10-21T00:19:51.039Z,88.01
2017-10-21T00:22:17.537Z,88.23
2017-10-21T00:24:43.679Z,88.68
2017-10-21T00:27:09.743Z,88.68
2017-10-21T00:29:35.814Z,87.90
2017-10-21T00:32:01.898Z,87.93
2017-10-21T00:34:28.387Z,87.98
2017-10-21T00:36:54.451Z,87.73
2017-10-21T00:39:20.579Z,87.67
2017-10-21T00:41:46.670Z,87.23
2017-10-21T00:44:12.766Z,87.43
2017-10-21T00:46:39.230Z,87.33
2017-10-21T00:49:05.282Z,87.94
2017-10-21T00:51:31.413Z,87.39
2017-10-21T00:53:57.467Z,87.32
2017-10-21T00:56:23.483Z,88.03
2017-10-21T00:58:49.971Z,88.65
2017-10-21T01:01:16.050Z,88.56
2017-10-21T01:03:42.179Z,88.71
2017-10-21T01:06:08.303Z,88.24
2017-10-21T01:08:34.299Z,88.39
2017-10-21T01:11:00.820Z,88.48
2017-10-21T01:13:26.951Z,88.33
2017-10-21T01:15:53.039Z,89.07
2017-10-21T01:18:19.206Z,88.68
2017-10-21T01:20:45.279Z,88.45
2017-10-21T01:23:11.760Z,88.74
2017-10-21T01:25:37.786Z,88.16
2017-10-21T01:28:03.898Z,88.15
2017-10-21T01:30:29.919Z,88.20
2017-10-21T01:32:55.950Z,87.57
2017-10-21T01:35:22.514Z,87.15
2017-10-21T01:37:48.562Z,87.52
2017-10-21T01:40:14.613Z,87.94
2017-10-21T01:42:40.671Z,87.92
2017-10-21T01:45:06.730Z,88.62
2017-10-21T01:47:33.278Z,88.48
2017-10-21T01:49:59.319Z,87.69
2017-10-21T01:52:25.432Z,88.04
2017-10-21T01:54:51.495Z,88.24
2017-10-21T01:57:17.546Z,88.38
2017-10-21T01:59:43.998Z,88.36
2017-10-21T02:02:10.115Z,88.68
2017-10-21T02:04:36.207Z,88.26
2017-10-21T02:07:02.292Z,88.21
2017-10-21T02:09:28.350Z,88.14
2017-10-21T02:11:54.835Z,88.13
2017-10-21T02:14:20.875Z,88.22
2017-10-21T02:16:47.280Z,88.21
2017-10-21T02:19:13.683Z,88.25
2017-10-21T02:21:39.716Z,88.69
2017-10-21T02:24:05.759Z,88.08
2017-10-21T02:26:31.824Z,86.95
2017-10-21T02:28:57.887Z,86.37
2017-10-21T02:31:24.406Z,86.69
2017-10-21T02:33:50.430Z,87.15
2017-10-21T02:36:16.463Z,87.73
2017-10-21T02:38:42.532Z,87.79
2017-10-21T02:41:08.631Z,88.16
2017-10-21T02:43:35.106Z,88.01
2017-10-21T02:46:01.139Z,88.22
2017-10-21T02:48:27.192Z,87.97
2017-10-21T02:50:53.344Z,88.38
2017-10-21T02:53:20.040Z,88.46
2017-10-21T02:55:46.470Z,89.68
2017-10-21T02:58:12.582Z,89.26
2017-10-21T03:00:38.659Z,88.54
2017-10-21T03:03:05.139Z,87.97
2017-10-21T03:05:31.259Z,88.40
2017-10-21T03:07:57.339Z,88.75
2017-10-21T03:10:23.842Z,89.88
2017-10-21T03:12:49.889Z,90.57
2017-10-21T03:15:15.970Z,90.55
2017-10-21T03:17:42.084Z,90.99
2017-10-21T03:20:08.133Z,91.78
2017-10-21T03:22:34.582Z,91.50
2017-10-21T03:25:00.652Z,90.94
2017-10-21T03:27:26.784Z,90.22
2017-10-21T03:29:52.939Z,89.93
2017-10-21T03:32:19.034Z,90.09
2017-10-21T03:34:45.524Z,89.71
2017-10-21T03:37:11.560Z,89.52
2017-10-21T03:39:37.650Z,89.46
2017-10-21T03:42:04.210Z,89.84
2017-10-21T03:44:30.301Z,89.72
2017-10-21T03:46:56.432Z,89.34
2017-10-21T03:49:22.543Z,89.27
2017-10-21T03:51:48.634Z,89.68
2017-10-21T03:54:15.597Z,90.17
2017-10-21T03:56:41.718Z,90.25
2017-10-21T03:59:07.791Z,91.12
2017-10-21T04:01:33.951Z,90.99
2017-10-21T04:04:00.000Z,90.54
2017-10-21T04:06:26.514Z,90.32
2017-10-21T04:08:52.591Z,90.35
2017-10-21T04:11:18.627Z,90.14
2017-10-21T04:13:44.690Z,90.18
2017-10-21T04:16:10.785Z,90.57
2017-10-21T04:18:37.255Z,90.88
2017-10-21T04:21:03.309Z,90.02
2017-10-21T04:23:29.362Z,90.37
2017-10-21T04:25:55.434Z,90.66
2017-10-21T04:28:21.570Z,90.42
2017-10-21T04:30:47.955Z,89.80
2017-10-21T04:33:14.063Z,89.74
2017-10-21T04:35:40.166Z,89.76
2017-10-21T04:38:06.583Z,89.75
2017-10-21T04:40:32.656Z,89.61
2017-10-21T04:42:58.791Z,89.60
2017-10-21T04:45:25.203Z,90.55
2017-10-21T04:47:51.327Z,91.12
2017-10-21T04:50:17.371Z,91.01
2017-10-21T04:52:43.512Z,90.74
2017-10-21T04:55:09.622Z,90.61
2017-10-21T04:57:36.217Z,90.08
2017-10-21T05:00:02.286Z,90.02
2017-10-21T05:02:28.388Z,89.85
2017-10-21T05:04:54.491Z,89.55
2017-10-21T05:07:20.630Z,89.50
2017-10-21T05:09:47.078Z,89.43
2017-10-21T05:12:13.182Z,89.28
2017-10-21T05:14:39.258Z,89.49
2017-10-21T05:17:05.322Z,89.60
2017-10-21T05:19:31.390Z,89.67
2017-10-21T05:21:57.795Z,90.09
2017-10-21T05:24:23.861Z,88.64
2017-10-21T05:26:49.959Z,87.92
2017-10-21T05:29:16.046Z,87.86
2017-10-21T05:31:42.131Z,88.58
2017-10-21T05:34:08.635Z,89.23
2017-10-21T05:36:34.711Z,88.87
2017-10-21T05:39:00.791Z,88.14
2017-10-21T05:41:26.870Z,88.33
2017-10-21T05:43:53.048Z,88.57
2017-10-21T05:46:19.448Z,89.14
2017-10-21T05:48:45.743Z,89.77
2017-10-21T05:51:11.830Z,89.38
2017-10-21T05:53:37.900Z,89.14
2017-10-21T05:56:04.012Z,88.77
2017-10-21T05:58:30.459Z,88.72
2017-10-21T06:00:56.578Z,88.29
2017-10-21T06:03:22.710Z,88.50
2017-10-21T06:05:49.217Z,89.03
2017-10-21T06:08:15.327Z,89.82
2017-10-21T06:10:41.429Z,90.01
2017-10-21T06:13:07.593Z,89.64
2017-10-21T06:15:33.720Z,89.77
2017-10-21T06:18:00.299Z,89.52
2017-10-21T06:20:26.415Z,89.29
2017-10-21T06:22:52.513Z,90.57
2017-10-21T06:25:18.643Z,90.90
2017-10-21T06:27:44.724Z,91.03
2017-10-21T06:30:11.219Z,90.30
2017-10-21T06:32:37.355Z,90.18
2017-10-21T06:35:03.484Z,90.33
2017-10-21T06:37:29.602Z,90.38
2017-10-21T06:39:55.735Z,90.94
2017-10-21T06:42:22.282Z,90.97
2017-10-21T06:44:48.379Z,90.48
2017-10-21T06:47:14.473Z,89.99
2017-10-21T06:49:40.585Z,89.74
2017-10-21T06:52:06.733Z,89.51
2017-10-21T06:54:33.331Z,89.04
2017-10-21T06:56:59.489Z,89.19
2017-10-21T06:59:25.579Z,88.99
2017-10-21T07:01:51.715Z,89.02
2017-10-21T07:04:17.890Z,89.00
2017-10-21T07:06:44.354Z,89.07
2017-10-21T07:09:10.474Z,89.17
2017-10-21T07:11:36.566Z,89.13
2017-10-21T07:14:02.666Z,89.73
2017-10-21T07:16:28.731Z,90.27
2017-10-21T07:18:55.219Z,90.41
2017-10-21T07:21:21.297Z,89.70
2017-10-21T07:23:47.428Z,89.29
2017-10-21T07:26:13.912Z,89.08
2017-10-21T07:28:40.003Z,88.95
2017-10-21T07:31:06.113Z,88.81
2017-10-21T07:33:32.544Z,88.32
2017-10-21T07:35:58.566Z,87.65
2017-10-21T07:38:24.645Z,87.10
2017-10-21T07:40:51.063Z,87.18
2017-10-21T07:43:17.139Z,86.45
2017-10-21T07:45:43.296Z,86.19
2017-10-21T07:48:09.876Z,85.83
2017-10-21T07:50:35.874Z,85.38
2017-10-21T07:53:02.014Z,84.31
2017-10-21T07:55:28.103Z,84.38
2017-10-21T07:57:54.225Z,84.69
2017-10-21T08:00:20.726Z,85.48
2017-10-21T08:02:46.811Z,85.51
2017-10-21T08:05:12.894Z,85.14
2017-10-21T08:07:39.412Z,85.62
2017-10-21T08:10:05.543Z,86.00
2017-10-21T08:12:31.578Z,86.64
2017-10-21T08:14:57.735Z,85.32
2017-10-21T08:17:23.859Z,84.40
2017-10-21T08:19:50.343Z,83.07
2017-10-21T08:22:23.720Z,82.84
2017-10-21T08:24:49.957Z,83.28
2017-10-21T08:27:16.030Z,83.34
2017-10-21T08:29:42.161Z,84.26
2017-10-21T08:32:08.325Z,83.35
2017-10-21T08:34:34.481Z,81.90
2017-10-21T08:37:00.587Z,81.12
2017-10-21T08:39:26.688Z,80.81
2017-10-21T08:41:52.824Z,80.36
2017-10-21T08:44:18.911Z,80.67
2017-10-21T08:46:45.036Z,80.61
2017-10-21T08:49:11.070Z,80.47
2017-10-21T08:51:37.195Z,80.04
2017-10-21T08:54:03.276Z,79.36
2017-10-21T08:56:29.441Z,79.95
2017-10-21T08:58:55.559Z,79.16
2017-10-21T09:01:21.679Z,77.17
2017-10-21T09:03:47.854Z,77.15
2017-10-21T09:06:13.935Z,76.38
2017-10-21T09:08:40.103Z,76.75
2017-10-21T09:11:06.248Z,76.86
2017-10-21T09:13:32.347Z,75.84
2017-10-21T09:15:58.459Z,75.20
2017-10-21T09:18:24.541Z,74.96
2017-10-21T09:20:50.612Z,74.64
2017-10-21T09:23:16.676Z,74.29
2017-10-21T09:25:42.738Z,73.42
2017-10-21T09:28:08.847Z,73.55
2017-10-21T09:30:34.928Z,73.61
2017-10-21T09:33:01.003Z,73.38
2017-10-21T09:35:27.108Z,72.21
2017-10-21T09:37:53.265Z,72.33
2017-10-21T09:40:19.362Z,71.30
2017-10-21T09:42:45.474Z,70.75
2017-10-21T09:45:11.566Z,70.98
2017-10-21T09:47:37.682Z,70.86
2017-10-21T09:50:03.763Z,69.71
2017-10-21T09:52:29.848Z,69.57
2017-10-21T09:54:56.002Z,70.57
2017-10-21T09:57:22.098Z,68.16
2017-10-21T09:59:48.230Z,67.55
2017-10-21T10:02:14.323Z,68.41
2017-10-21T10:04:40.426Z,67.39
2017-10-21T10:07:06.536Z,64.66
2017-10-21T10:09:32.622Z,64.13
2017-10-21T10:11:58.758Z,64.88
2017-10-21T10:14:24.887Z,64.69
2017-10-21T10:16:50.959Z,63.65
2017-10-21T10:19:17.083Z,63.11
2017-10-21T10:21:43.189Z,63.02
2017-10-21T10:24:09.318Z,62.83
2017-10-21T10:26:35.395Z,62.94
2017-10-21T10:29:01.583Z,63.14
2017-10-21T10:31:27.702Z,62.86
2017-10-21T10:33:53.781Z,63.19
2017-10-21T10:36:20.003Z,63.12
2017-10-21T10:38:46.099Z,62.52
2017-10-21T10:41:12.247Z,63.41
2017-10-21T10:43:38.402Z,63.14
2017-10-21T10:46:04.500Z,62.80
2017-10-21T10:48:30.646Z,62.60
2017-10-21T10:50:56.755Z,63.09
2017-10-21T10:53:22.855Z,63.40
2017-10-21T10:55:48.922Z,63.84
2017-10-21T10:58:15.015Z,64.49
2017-10-21T11:00:41.098Z,64.96
2017-10-21T11:03:07.183Z,65.32
2017-10-21T11:05:33.265Z,65.59
2017-10-21T11:07:59.708Z,65.73
2017-10-21T11:10:25.851Z,66.44
2017-10-21T11:12:51.958Z,66.06
2017-10-21T11:15:18.062Z,65.51
2017-10-21T11:17:44.153Z,65.60
2017-10-21T11:20:10.295Z,65.79
2017-10-21T11:22:36.392Z,66.60
2017-10-21T11:25:02.458Z,65.83
2017-10-21T11:27:28.501Z,64.97
2017-10-21T11:29:54.598Z,65.98
2017-10-21T11:32:20.663Z,66.99
2017-10-21T11:34:46.794Z,66.67
2017-10-21T11:37:12.879Z,65.71
2017-10-21T11:39:38.922Z,66.73
2017-10-21T11:42:04.975Z,66.58
2017-10-21T11:44:31.099Z,66.35
2017-10-21T11:46:57.179Z,65.26
2017-10-21T11:49:23.248Z,65.42
2017-10-21T11:51:49.323Z,65.39
2017-10-21T11:54:15.493Z,66.97
2017-10-21T11:56:41.582Z,66.43
2017-10-21T11:59:07.622Z,66.54
2017-10-21T12:01:33.882Z,66.12
2017-10-21T12:03:59.963Z,66.34
2017-10-21T12:06:26.323Z,65.69
2017-10-21T12:08:52.408Z,66.04
2017-10-21T12:11:18.474Z,65.44
2017-10-21T12:13:44.570Z,65.92
2017-10-21T12:16:10.659Z,64.87
2017-10-21T12:18:36.826Z,64.63
2017-10-21T12:21:02.925Z,64.62
2017-10-21T12:23:28.991Z,64.85
2017-10-21T12:25:55.123Z,64.18
2017-10-21T12:28:21.210Z,64.76
2017-10-21T12:30:47.359Z,64.33
2017-10-21T12:33:13.546Z,65.03
2017-10-21T12:35:39.648Z,65.43
2017-10-21T12:38:05.733Z,65.19
2017-10-21T12:40:32.343Z,65.05
2017-10-21T12:42:58.458Z,66.03
2017-10-21T12:45:24.592Z,65.72
2017-10-21T12:47:50.669Z,64.85
2017-10-21T12:50:16.800Z,65.10
2017-10-21T12:52:42.896Z,64.93
2017-10-21T12:55:09.041Z,64.74
2017-10-21T12:57:35.070Z,65.59
2017-10-21T13:00:01.190Z,64.27
2017-10-21T13:02:27.291Z,64.87
2017-10-21T13:04:53.326Z,64.77
2017-10-21T13:07:19.430Z,64.95
2017-10-21T13:09:45.614Z,64.90
2017-10-21T13:12:11.709Z,64.85
2017-10-21T13:14:37.829Z,64.87
2017-10-21T13:17:03.990Z,64.76
2017-10-21T13:19:30.134Z,65.19
2017-10-21T13:21:56.195Z,64.36
2017-10-21T13:24:22.299Z,65.10
2017-10-21T13:26:48.473Z,64.97
2017-10-21T13:29:14.514Z,64.49
2017-10-21T13:31:40.637Z,65.18
2017-10-21T13:34:06.771Z,65.46
2017-10-21T13:36:32.858Z,64.90
2017-10-21T13:38:58.950Z,64.78
2017-10-21T13:41:25.046Z,65.25
2017-10-21T13:43:51.130Z,65.93
2017-10-21T13:46:17.573Z,65.53
2017-10-21T13:48:43.671Z,66.00
2017-10-21T13:51:09.840Z,65.93
2017-10-21T13:53:35.963Z,65.78
2017-10-21T13:56:02.038Z,66.37
2017-10-21T13:58:28.167Z,65.93
2017-10-21T14:00:54.227Z,66.63
2017-10-21T14:03:20.370Z,67.01
2017-10-21T14:05:46.442Z,66.35
2017-10-21T14:08:12.537Z,66.01
2017-10-21T14:10:38.611Z,66.40
2017-10-21T14:13:04.719Z,66.51
2017-10-21T14:15:30.827Z,67.16
2017-10-21T14:17:56.907Z,67.84
2017-10-21T14:20:23.030Z,68.20
2017-10-21T14:22:49.118Z,68.47
2017-10-21T14:25:15.226Z,68.36
2017-10-21T14:27:41.312Z,69.00
2017-10-21T14:30:07.388Z,68.69
2017-10-21T14:32:33.466Z,69.00
2017-10-21T14:34:59.591Z,68.71
2017-10-21T14:37:25.649Z,69.57
2017-10-21T14:39:51.799Z,68.64
2017-10-21T14:42:17.889Z,68.99
2017-10-21T14:44:43.997Z,69.47
2017-10-21T14:47:10.156Z,69.88
2017-10-21T14:49:36.264Z,69.89
2017-10-21T14:52:02.399Z,69.66
2017-10-21T14:54:28.534Z,69.56
2017-10-21T14:56:54.663Z,70.09
2017-10-21T14:59:20.826Z,70.48
2017-10-21T15:01:46.939Z,70.76
2017-10-21T15:04:12.976Z,70.69
2017-10-21T15:06:39.100Z,71.60
2017-10-21T15:09:05.200Z,71.62
2017-10-21T15:11:31.285Z,71.78
2017-10-21T15:13:57.380Z,72.01
2017-10-21T15:16:23.491Z,72.07
2017-10-21T15:18:49.600Z,72.48
2017-10-21T15:21:15.715Z,72.65
2017-10-21T15:23:41.914Z,71.85
2017-10-21T15:26:08.022Z,72.61
2017-10-21T15:28:34.083Z,74.60
2017-10-21T15:31:00.199Z,75.99
2017-10-21T15:33:26.405Z,76.64
2017-10-21T15:35:52.481Z,75.86
2017-10-21T15:38:18.592Z,74.74
2017-10-21T15:40:44.677Z,74.87
2017-10-21T15:43:10.774Z,74.53
2017-10-21T15:45:36.907Z,74.47
2017-10-21T15:48:03.001Z,74.04
2017-10-21T15:50:29.117Z,73.70
2017-10-21T15:52:55.217Z,74.40
2017-10-21T15:55:21.347Z,74.62
2017-10-21T15:57:47.459Z,74.18
2017-10-21T16:00:13.618Z,74.25
2017-10-21T16:02:39.748Z,73.63
2017-10-21T16:05:05.915Z,74.87
2017-10-21T16:07:32.010Z,75.79
2017-10-21T16:09:58.193Z,74.50
2017-10-21T16:12:24.309Z,74.19
2017-10-21T16:14:50.485Z,74.38
2017-10-21T16:17:16.634Z,75.89
2017-10-21T16:19:42.784Z,76.40
2017-10-21T16:22:08.936Z,76.71
2017-10-21T16:24:35.016Z,77.33
2017-10-21T16:27:01.091Z,77.50
2017-10-21T16:29:27.229Z,77.50
2017-10-21T16:31:53.306Z,78.39
2017-10-21T16:34:19.399Z,79.16
2017-10-21T16:36:45.511Z,80.00
2017-10-21T16:39:11.675Z,79.46
2017-10-21T16:41:37.762Z,79.59
2017-10-21T16:44:03.953Z,79.70
2017-10-21T16:46:30.065Z,79.82
2017-10-21T16:48:56.445Z,80.33
2017-10-21T16:51:22.620Z,80.33
2017-10-21T16:53:48.667Z,80.21
2017-10-21T16:56:14.771Z,79.99
2017-10-21T16:58:40.917Z,80.45
2017-10-21T17:01:07.032Z,80.22
2017-10-21T17:03:33.110Z,79.97
2017-10-21T17:05:59.190Z,80.65
2017-10-21T17:08:25.270Z,80.90
2017-10-21T17:10:51.367Z,81.10
2017-10-21T17:13:17.473Z,81.34
2017-10-21T17:15:43.583Z,81.50
2017-10-21T17:18:09.677Z,81.20
2017-10-21T17:20:35.828Z,80.96
2017-10-21T17:23:01.983Z,80.97
2017-10-21T17:25:28.055Z,80.80
2017-10-21T17:27:54.186Z,80.75
2017-10-21T17:30:20.288Z,80.62
2017-10-21T17:32:46.483Z,80.75
2017-10-21T17:35:12.563Z,81.11
2017-10-21T17:37:38.652Z,81.07
2017-10-21T17:40:04.802Z,81.50
2017-10-21T17:42:30.989Z,83.41
2017-10-21T17:44:57.146Z,83.78
2017-10-21T17:47:23.263Z,83.62
2017-10-21T17:49:49.349Z,83.27
2017-10-21T17:52:15.483Z,83.13
2017-10-21T17:54:41.615Z,83.39
2017-10-21T17:57:07.841Z,83.14
2017-10-21T17:59:33.927Z,82.81
2017-10-21T18:02:00.071Z,82.82
2017-10-21T18:04:26.183Z,83.02
2017-10-21T18:06:52.275Z,83.14
2017-10-21T18:09:18.428Z,83.48
2017-10-21T18:11:44.497Z,83.22
2017-10-21T18:14:11.514Z,83.18
2017-10-21T18:16:37.626Z,83.18
2017-10-21T18:19:03.727Z,83.10
2017-10-21T18:21:29.860Z,83.34
2017-10-21T18:23:55.994Z,83.49
2017-10-21T18:26:22.069Z,83.33
2017-10-21T18:28:48.216Z,82.97
2017-10-21T18:31:14.306Z,83.76
2017-10-21T18:33:40.467Z,84.23
2017-10-21T18:36:06.585Z,83.96
2017-10-21T18:38:32.695Z,83.60
2017-10-21T18:40:58.888Z,84.02
2017-10-21T18:43:25.037Z,83.91
2017-10-21T18:45:51.283Z,83.58
2017-10-21T18:48:17.472Z,83.56
2017-10-21T18:50:43.600Z,83.56
2017-10-21T18:53:09.875Z,83.66
2017-10-21T18:55:35.997Z,83.94
2017-10-21T18:58:02.152Z,85.09
2017-10-21T19:00:28.769Z,85.38
2017-10-21T19:02:54.965Z,85.49
2017-10-21T19:05:21.143Z,85.23
2017-10-21T19:07:47.400Z,85.16
2017-10-21T19:10:13.608Z,84.83
2017-10-21T19:12:39.726Z,84.83
2017-10-21T19:15:05.931Z,84.85
2017-10-21T19:17:32.089Z,85.12
2017-10-21T19:19:58.208Z,85.82
2017-10-21T19:22:24.459Z,85.74
2017-10-21T19:24:50.677Z,86.46
2017-10-21T19:27:16.784Z,86.79
2017-10-21T19:29:42.950Z,86.28
2017-10-21T19:32:09.133Z,86.29
2017-10-21T19:34:35.317Z,86.65
2017-10-21T19:37:01.578Z,86.42
2017-10-21T19:42:09.688Z,86.19
2017-10-21T19:44:41.004Z,86.33
2017-10-21T19:47:07.240Z,86.55
2017-10-21T19:49:33.476Z,86.26
2017-10-21T19:52:14.991Z,86.21
2017-10-21T19:54:41.236Z,86.19
2017-10-21T19:57:07.349Z,88.05
2017-10-21T19:59:33.499Z,87.51
2017-10-21T20:01:59.625Z,87.24
2017-10-21T20:04:25.770Z,87.31
2017-10-21T20:06:51.911Z,86.92
2017-10-21T20:09:18.031Z,86.76
2017-10-21T20:11:44.218Z,86.57
2017-10-21T20:14:10.395Z,86.68
2017-10-21T20:16:36.504Z,86.73
2017-10-21T20:19:02.701Z,87.68
2017-10-21T20:21:28.819Z,88.97
2017-10-21T20:23:54.976Z,88.92
2017-10-21T20:26:21.107Z,88.57
2017-10-21T20:28:47.149Z,88.63
2017-10-21T20:31:13.214Z,88.28
2017-10-21T20:33:39.360Z,88.45
2017-10-21T20:36:05.479Z,87.91
2017-10-21T20:38:31.609Z,88.96
2017-10-21T20:40:57.903Z,88.46
2017-10-21T20:43:24.026Z,87.86
2017-10-21T20:45:50.183Z,87.66
2017-10-21T20:48:16.323Z,90.14
2017-10-21T20:50:42.430Z,92.30
2017-10-21T20:53:08.542Z,91.46
2017-10-21T20:55:34.658Z,90.88
2017-10-21T20:58:00.736Z,91.65
2017-10-21T21:00:27.255Z,92.63
2017-10-21T21:02:53.347Z,93.46
2017-10-21T21:05:19.402Z,93.90
2017-10-21T21:07:45.490Z,92.69
2017-10-21T21:10:12.564Z,92.33
2017-10-21T21:12:38.695Z,92.46
2017-10-21T21:15:04.791Z,94.03
2017-10-21T21:17:30.934Z,92.92
2017-10-21T21:19:57.024Z,90.48
2017-10-21T21:22:23.170Z,88.86
2017-10-21T21:24:49.289Z,88.78
2017-10-21T21:27:15.390Z,89.47
2017-10-21T21:29:41.493Z,88.82
2017-10-21T21:32:07.670Z,88.61
2017-10-21T21:34:33.768Z,88.93
2017-10-21T21:36:59.943Z,87.46
2017-10-21T21:39:26.027Z,88.82
2017-10-21T21:41:52.191Z,89.84
2017-10-21T21:44:18.327Z,91.76
2017-10-21T21:46:44.418Z,91.76
2017-10-21T21:49:10.555Z,92.55
2017-10-21T21:51:36.766Z,92.90
2017-10-21T21:54:02.899Z,91.63
2017-10-21T21:56:28.974Z,92.07
2017-10-21T21:58:55.064Z,91.92
2017-10-21T22:01:21.184Z,92.82
2017-10-21T22:03:47.275Z,92.35
2017-10-21T22:06:13.379Z,90.28
2017-10-21T22:08:39.490Z,91.19
2017-10-21T22:11:05.943Z,90.59
2017-10-21T22:13:32.022Z,92.20
2017-10-21T22:15:58.153Z,93.32
2017-10-21T22:18:24.283Z,92.75
2017-10-21T22:20:50.381Z,92.16
2017-10-21T22:23:16.533Z,92.76
2017-10-21T22:25:42.685Z,92.03
2017-10-21T22:28:08.790Z,91.95
2017-10-21T22:30:34.906Z,91.98
2017-10-21T22:33:00.980Z,92.16
2017-10-21T22:35:27.117Z,91.04
2017-10-21T22:37:53.218Z,89.63
2017-10-21T22:40:19.243Z,89.98
2017-10-21T22:42:45.349Z,90.11
2017-10-21T22:45:11.454Z,90.23
2017-10-21T22:47:37.624Z,90.43
2017-10-21T22:50:03.721Z,90.53
2017-10-21T22:52:29.819Z,90.77
2017-10-21T22:54:55.903Z,90.75
2017-10-21T22:57:21.994Z,90.76
2017-10-21T22:59:48.086Z,91.45
2017-10-21T23:02:14.244Z,90.46
2017-10-21T23:04:40.339Z,91.06
2017-10-21T23:07:06.383Z,91.36
2017-10-21T23:09:32.474Z,91.18
2017-10-21T23:11:58.574Z,90.37
2017-10-21T23:14:24.673Z,90.54
2017-10-21T23:16:50.766Z,90.35
2017-10-21T23:19:16.824Z,91.35
2017-10-21T23:21:42.893Z,90.38
2017-10-21T23:24:08.995Z,90.82
2017-10-21T23:26:35.057Z,91.71
2017-10-21T23:29:01.136Z,92.37
2017-10-21T23:31:27.247Z,92.45
2017-10-21T23:33:53.342Z,92.22
2017-10-21T23:36:19.806Z,92.44
2017-10-21T23:38:45.879Z,92.37
2017-10-21T23:41:12.003Z,92.17
2017-10-21T23:43:38.086Z,91.52
2017-10-21T23:46:04.159Z,90.55
2017-10-21T23:48:30.757Z,90.23
2017-10-21T23:50:56.859Z,89.52
2017-10-21T23:53:25.923Z,89.74
2017-10-21T23:55:52.396Z,91.62
2017-10-21T23:58:18.509Z,91.58
